createdAt,value
2023-05-01T00:00:32.168Z,5.2222222222222285
2023-05-01T00:01:31.816Z,5.111111111111143
2023-05-01T00:02:32.364Z,5.111111111111143
2023-05-01T00:03:32.235Z,5.111111111111143
2023-05-01T00:04:32.230Z,5.111111111111143
2023-05-01T00:05:31.743Z,5.111111111111143
2023-05-01T00:06:32.253Z,5.111111111111143
2023-05-01T00:07:32.188Z,5.000000000000057
2023-05-01T00:08:32.171Z,5.000000000000057
2023-05-01T00:09:31.744Z,5.000000000000057
2023-05-01T00:10:32.134Z,5.000000000000057
2023-05-01T00:11:32.172Z,4.888888888888914
2023-05-01T00:12:32.169Z,4.888888888888914
2023-05-01T00:13:31.710Z,4.888888888888914
2023-05-01T00:14:32.141Z,4.888888888888914
2023-05-01T00:15:32.170Z,4.777777777777828
2023-05-01T00:16:32.202Z,4.777777777777828
2023-05-01T00:17:31.764Z,4.777777777777828
2023-05-01T00:18:32.135Z,4.777777777777828
2023-05-01T00:19:32.176Z,4.777777777777828
2023-05-01T00:20:32.173Z,4.777777777777828
2023-05-01T00:21:31.752Z,4.777777777777828
2023-05-01T00:22:32.123Z,4.777777777777828
2023-05-01T00:23:32.160Z,4.777777777777828
2023-05-01T00:24:32.145Z,4.777777777777828
2023-05-01T00:25:31.753Z,4.777777777777828
2023-05-01T00:26:32.177Z,4.777777777777828
2023-05-01T00:27:32.181Z,4.777777777777828
2023-05-01T00:28:32.180Z,4.777777777777828
2023-05-01T00:29:31.708Z,4.722222222222285
2023-05-01T00:30:32.235Z,4.722222222222285
2023-05-01T00:31:32.216Z,4.722222222222285
2023-05-01T00:32:32.207Z,4.722222222222285
2023-05-01T00:33:31.728Z,4.722222222222285
2023-05-01T00:34:32.153Z,4.722222222222285
2023-05-01T00:35:32.206Z,4.722222222222285
2023-05-01T00:36:32.131Z,4.722222222222285
2023-05-01T00:37:31.752Z,4.722222222222285
2023-05-01T00:38:32.165Z,4.722222222222285
2023-05-01T00:39:32.187Z,4.777777777777828
2023-05-01T00:40:32.145Z,4.777777777777828
2023-05-01T00:41:31.733Z,4.777777777777828
2023-05-01T00:42:32.141Z,4.777777777777828
2023-05-01T00:43:32.194Z,4.777777777777828
2023-05-01T00:44:32.187Z,4.777777777777828
2023-05-01T00:45:31.688Z,4.722222222222285
2023-05-01T00:46:32.289Z,4.722222222222285
2023-05-01T00:47:32.358Z,4.722222222222285
2023-05-01T00:48:32.158Z,4.722222222222285
2023-05-01T00:49:31.695Z,4.722222222222285
2023-05-01T00:50:32.167Z,4.722222222222285
2023-05-01T00:51:32.186Z,4.722222222222285
2023-05-01T00:52:32.177Z,4.722222222222285
2023-05-01T00:53:31.682Z,4.722222222222285
2023-05-01T00:54:32.138Z,4.722222222222285
2023-05-01T00:55:32.166Z,4.722222222222285
2023-05-01T00:56:32.157Z,4.722222222222285
2023-05-01T00:57:31.691Z,4.722222222222285
2023-05-01T00:58:32.186Z,4.722222222222285
2023-05-01T00:59:32.169Z,4.722222222222285
2023-05-01T01:00:32.142Z,4.722222222222285
2023-05-01T01:01:31.744Z,4.722222222222285
2023-05-01T01:02:32.174Z,4.611111111111143
2023-05-01T01:03:32.204Z,4.611111111111143
2023-05-01T01:04:32.215Z,4.611111111111143
2023-05-01T01:05:31.709Z,4.611111111111143
2023-05-01T01:06:32.181Z,4.611111111111143
2023-05-01T01:07:32.169Z,4.611111111111143
2023-05-01T01:08:32.756Z,4.611111111111143
2023-05-01T01:09:31.687Z,4.611111111111143
2023-05-01T01:10:32.140Z,4.611111111111143
2023-05-01T01:11:32.191Z,4.611111111111143
2023-05-01T01:12:32.150Z,4.611111111111143
2023-05-01T01:13:31.702Z,4.500000000000057
2023-05-01T01:14:32.192Z,4.500000000000057
2023-05-01T01:15:32.200Z,4.500000000000057
2023-05-01T01:16:32.200Z,4.500000000000057
2023-05-01T01:17:31.734Z,4.500000000000057
2023-05-01T01:18:32.156Z,4.388888888888914
2023-05-01T01:19:32.164Z,4.388888888888914
2023-05-01T01:20:32.143Z,4.388888888888914
2023-05-01T01:21:31.684Z,4.388888888888914
2023-05-01T01:22:32.164Z,4.388888888888914
2023-05-01T01:23:32.162Z,4.388888888888914
2023-05-01T01:24:32.125Z,4.388888888888914
2023-05-01T01:25:31.850Z,4.277777777777828
2023-05-01T01:26:32.166Z,4.277777777777828
2023-05-01T01:27:32.150Z,4.277777777777828
2023-05-01T01:28:32.163Z,4.277777777777828
2023-05-01T01:29:31.668Z,4.277777777777828
2023-05-01T01:30:32.161Z,4.277777777777828
2023-05-01T01:31:32.190Z,4.277777777777828
2023-05-01T01:32:32.214Z,4.277777777777828
2023-05-01T01:33:31.682Z,4.277777777777828
2023-05-01T01:34:32.165Z,4.222222222222285
2023-05-01T01:35:32.166Z,4.222222222222285
2023-05-01T01:36:32.229Z,4.222222222222285
2023-05-01T01:37:31.662Z,4.111111111111143
2023-05-01T01:38:32.161Z,4.111111111111143
2023-05-01T01:39:32.173Z,4.111111111111143
2023-05-01T01:40:32.420Z,4.111111111111143
2023-05-01T01:41:31.828Z,4.111111111111143
2023-05-01T01:42:32.356Z,4.111111111111143
2023-05-01T01:43:32.282Z,4.000000000000057
2023-05-01T01:44:32.379Z,4.000000000000057
2023-05-01T01:45:31.760Z,4.000000000000057
2023-05-01T01:46:32.314Z,4.000000000000057
2023-05-01T01:47:32.432Z,4.000000000000057
2023-05-01T01:48:32.376Z,4.000000000000057
2023-05-01T01:49:31.711Z,3.888888888888914
2023-05-01T01:50:32.243Z,3.888888888888914
2023-05-01T01:51:32.252Z,3.888888888888914
2023-05-01T01:52:32.315Z,3.888888888888914
2023-05-01T01:53:31.795Z,3.888888888888914
2023-05-01T01:54:32.331Z,3.888888888888914
2023-05-01T01:55:32.280Z,3.888888888888914
2023-05-01T01:56:32.306Z,3.888888888888914
2023-05-01T01:57:31.964Z,3.7777777777778283
2023-05-01T01:58:32.149Z,3.7777777777778283
2023-05-01T01:59:32.135Z,3.7777777777778283
2023-05-01T02:00:32.206Z,3.7777777777778283
2023-05-01T02:01:31.644Z,3.7222222222222854
2023-05-01T02:02:32.219Z,3.7222222222222854
2023-05-01T02:03:32.222Z,3.7222222222222854
2023-05-01T02:04:32.161Z,3.7222222222222854
2023-05-01T02:05:31.597Z,3.7222222222222854
2023-05-01T02:06:32.188Z,3.7222222222222854
2023-05-01T02:07:32.172Z,3.7222222222222854
2023-05-01T02:08:32.154Z,3.7222222222222854
2023-05-01T02:09:31.630Z,3.7222222222222854
2023-05-01T02:10:32.141Z,3.7222222222222854
2023-05-01T02:11:32.142Z,3.7222222222222854
2023-05-01T02:12:32.174Z,3.7222222222222854
2023-05-01T02:13:31.632Z,3.7222222222222854
2023-05-01T02:14:32.203Z,3.6111111111111427
2023-05-01T02:15:32.166Z,3.6111111111111427
2023-05-01T02:16:32.193Z,3.6111111111111427
2023-05-01T02:17:31.748Z,3.500000000000057
2023-05-01T02:18:32.145Z,3.500000000000057
2023-05-01T02:19:32.154Z,3.500000000000057
2023-05-01T02:20:32.164Z,3.500000000000057
2023-05-01T02:21:31.627Z,3.500000000000057
2023-05-01T02:22:32.151Z,3.500000000000057
2023-05-01T02:23:32.147Z,3.500000000000057
2023-05-01T02:24:32.158Z,3.500000000000057
2023-05-01T02:25:31.638Z,3.500000000000057
2023-05-01T02:26:32.142Z,3.500000000000057
2023-05-01T02:27:32.131Z,3.388888888888971
2023-05-01T02:28:32.143Z,3.500000000000057
2023-05-01T02:29:31.619Z,3.500000000000057
2023-05-01T02:30:32.204Z,3.500000000000057
2023-05-01T02:31:32.202Z,3.500000000000057
2023-05-01T02:32:32.228Z,3.500000000000057
2023-05-01T02:33:31.616Z,3.500000000000057
2023-05-01T02:34:32.159Z,3.500000000000057
2023-05-01T02:35:32.163Z,3.500000000000057
2023-05-01T02:36:32.152Z,3.500000000000057
2023-05-01T02:37:31.591Z,3.388888888888971
2023-05-01T02:38:32.158Z,3.388888888888971
2023-05-01T02:39:32.137Z,3.388888888888971
2023-05-01T02:40:32.185Z,3.388888888888971
2023-05-01T02:41:31.617Z,3.388888888888971
2023-05-01T02:42:32.174Z,3.388888888888971
2023-05-01T02:43:32.143Z,3.388888888888971
2023-05-01T02:44:32.186Z,3.2777777777778283
2023-05-01T02:45:31.624Z,3.2777777777778283
2023-05-01T02:46:32.154Z,3.2777777777778283
2023-05-01T02:47:32.169Z,3.2777777777778283
2023-05-01T02:48:32.172Z,3.2777777777778283
2023-05-01T02:49:31.622Z,3.2777777777778283
2023-05-01T02:50:32.158Z,3.2777777777778283
2023-05-01T02:51:32.158Z,3.2777777777778283
2023-05-01T02:52:32.175Z,3.2777777777778283
2023-05-01T02:53:31.646Z,3.2777777777778283
2023-05-01T02:54:32.151Z,3.2222222222222854
2023-05-01T02:55:32.162Z,3.2222222222222854
2023-05-01T02:56:32.171Z,3.2777777777778283
2023-05-01T02:57:32.063Z,3.2777777777778283
2023-05-01T02:58:32.168Z,3.2777777777778283
2023-05-01T02:59:32.162Z,3.2777777777778283
2023-05-01T03:00:32.175Z,3.2777777777778283
2023-05-01T03:01:31.658Z,3.2777777777778283
2023-05-01T03:02:32.296Z,3.2777777777778283
2023-05-01T03:03:32.138Z,3.2777777777778283
2023-05-01T03:04:32.194Z,3.2777777777778283
2023-05-01T03:05:31.576Z,3.2777777777778283
2023-05-01T03:06:32.201Z,3.2777777777778283
2023-05-01T03:07:32.645Z,3.2777777777778283
2023-05-01T03:08:32.192Z,3.2777777777778283
2023-05-01T03:09:31.576Z,3.2777777777778283
2023-05-01T03:10:32.182Z,3.2777777777778283
2023-05-01T03:11:32.297Z,3.388888888888971
2023-05-01T03:12:32.320Z,3.388888888888971
2023-05-01T03:13:31.578Z,3.388888888888971
2023-05-01T03:14:32.306Z,3.388888888888971
2023-05-01T03:15:32.131Z,3.388888888888971
2023-05-01T03:16:32.232Z,3.388888888888971
2023-05-01T03:17:32.011Z,3.388888888888971
2023-05-01T03:18:32.309Z,3.388888888888971
2023-05-01T03:19:32.248Z,3.388888888888971
2023-05-01T03:20:32.320Z,3.388888888888971
2023-05-01T03:21:31.572Z,3.388888888888971
2023-05-01T03:22:32.147Z,3.2777777777778283
2023-05-01T03:23:32.099Z,3.2777777777778283
2023-05-01T03:24:32.340Z,3.2777777777778283
2023-05-01T03:25:31.740Z,3.388888888888971
2023-05-01T03:26:32.147Z,3.388888888888971
2023-05-01T03:27:32.127Z,3.388888888888971
2023-05-01T03:28:32.146Z,3.388888888888971
2023-05-01T03:29:31.753Z,3.388888888888971
2023-05-01T03:30:32.175Z,3.388888888888971
2023-05-01T03:31:32.200Z,3.388888888888971
2023-05-01T03:32:32.261Z,3.388888888888971
2023-05-01T03:33:31.647Z,3.388888888888971
2023-05-01T03:34:32.292Z,3.388888888888971
2023-05-01T03:35:32.224Z,3.388888888888971
2023-05-01T03:36:32.279Z,3.388888888888971
2023-05-01T03:37:31.636Z,3.388888888888971
2023-05-01T03:38:32.137Z,3.388888888888971
2023-05-01T03:39:32.199Z,3.388888888888971
2023-05-01T03:40:32.226Z,3.500000000000057
2023-05-01T03:41:31.683Z,3.500000000000057
2023-05-01T03:42:32.303Z,3.500000000000057
2023-05-01T03:43:32.236Z,3.500000000000057
2023-05-01T03:44:32.125Z,3.500000000000057
2023-05-01T03:45:31.694Z,3.500000000000057
2023-05-01T03:46:32.243Z,3.500000000000057
2023-05-01T03:47:32.192Z,3.500000000000057
2023-05-01T03:48:32.242Z,3.500000000000057
2023-05-01T03:49:31.678Z,3.500000000000057
2023-05-01T03:50:32.172Z,3.500000000000057
2023-05-01T03:51:32.114Z,3.500000000000057
2023-05-01T03:52:32.129Z,3.500000000000057
2023-05-01T03:53:31.560Z,3.500000000000057
2023-05-01T03:54:32.399Z,3.500000000000057
2023-05-01T03:55:32.149Z,3.500000000000057
2023-05-01T03:56:32.150Z,3.500000000000057
2023-05-01T03:57:31.826Z,3.500000000000057
2023-05-01T03:58:32.122Z,3.500000000000057
2023-05-01T03:59:32.130Z,3.500000000000057
2023-05-01T04:00:32.112Z,3.500000000000057
2023-05-01T04:01:31.633Z,3.500000000000057
2023-05-01T04:02:32.253Z,3.500000000000057
2023-05-01T04:03:32.360Z,3.500000000000057
2023-05-01T04:04:32.323Z,3.6111111111111427
2023-05-01T04:05:31.591Z,3.6111111111111427
2023-05-01T04:06:32.277Z,3.6111111111111427
2023-05-01T04:07:32.112Z,3.6111111111111427
2023-05-01T04:08:32.128Z,3.7222222222222854
2023-05-01T04:09:31.557Z,3.7222222222222854
2023-05-01T04:10:32.152Z,3.7222222222222854
2023-05-01T04:11:32.203Z,3.7777777777778283
2023-05-01T04:12:32.142Z,3.7777777777778283
2023-05-01T04:13:31.700Z,3.888888888888914
2023-05-01T04:14:32.125Z,3.888888888888914
2023-05-01T04:15:32.126Z,3.888888888888914
2023-05-01T04:16:32.344Z,3.888888888888914
2023-05-01T04:17:31.615Z,3.888888888888914
2023-05-01T04:18:32.122Z,3.888888888888914
2023-05-01T04:19:32.105Z,3.888888888888914
2023-05-01T04:20:32.163Z,3.888888888888914
2023-05-01T04:21:31.586Z,4.000000000000057
2023-05-01T04:22:32.144Z,4.000000000000057
2023-05-01T04:23:32.109Z,4.000000000000057
2023-05-01T04:24:32.109Z,4.111111111111143
2023-05-01T04:25:31.546Z,4.111111111111143
2023-05-01T04:26:32.278Z,4.222222222222285
2023-05-01T04:27:32.155Z,4.222222222222285
2023-05-01T04:28:32.145Z,4.222222222222285
2023-05-01T04:29:31.539Z,4.277777777777828
2023-05-01T04:30:32.152Z,4.388888888888914
2023-05-01T04:31:32.148Z,4.388888888888914
2023-05-01T04:32:32.241Z,4.388888888888914
2023-05-01T04:33:31.520Z,4.388888888888914
2023-05-01T04:34:32.153Z,4.388888888888914
2023-05-01T04:35:32.156Z,4.388888888888914
2023-05-01T04:36:32.115Z,4.500000000000057
2023-05-01T04:37:31.508Z,4.500000000000057
2023-05-01T04:38:32.153Z,4.500000000000057
2023-05-01T04:39:32.168Z,4.500000000000057
2023-05-01T04:40:32.136Z,4.500000000000057
2023-05-01T04:41:31.483Z,4.611111111111143
2023-05-01T04:42:32.166Z,4.611111111111143
2023-05-01T04:43:32.114Z,4.722222222222285
2023-05-01T04:44:32.124Z,4.722222222222285
2023-05-01T04:45:31.469Z,4.777777777777828
2023-05-01T04:46:32.170Z,4.777777777777828
2023-05-01T04:47:32.156Z,4.888888888888914
2023-05-01T04:48:32.125Z,4.888888888888914
2023-05-01T04:49:31.511Z,5.000000000000057
2023-05-01T04:50:32.209Z,5.000000000000057
2023-05-01T04:51:32.196Z,5.111111111111143
2023-05-01T04:52:32.133Z,5.111111111111143
2023-05-01T04:53:31.475Z,5.2222222222222285
2023-05-01T04:54:32.249Z,5.2222222222222285
2023-05-01T04:55:32.121Z,5.2222222222222285
2023-05-01T04:56:32.103Z,5.2222222222222285
2023-05-01T04:57:31.538Z,5.277777777777828
2023-05-01T04:58:32.144Z,5.277777777777828
2023-05-01T04:59:32.111Z,5.277777777777828
2023-05-01T05:00:32.122Z,5.277777777777828
2023-05-01T05:01:31.526Z,5.388888888888914
2023-05-01T05:02:32.239Z,5.388888888888914
2023-05-01T05:03:32.357Z,5.388888888888914
2023-05-01T05:04:32.128Z,5.388888888888914
2023-05-01T05:05:31.524Z,5.388888888888914
2023-05-01T05:06:32.167Z,5.388888888888914
2023-05-01T05:07:32.135Z,5.388888888888914
2023-05-01T05:08:32.191Z,5.388888888888914
2023-05-01T05:09:31.490Z,5.388888888888914
2023-05-01T05:10:32.173Z,5.388888888888914
2023-05-01T05:11:32.148Z,5.388888888888914
2023-05-01T05:12:32.107Z,5.500000000000057
2023-05-01T05:13:31.456Z,5.500000000000057
2023-05-01T05:14:32.160Z,5.388888888888914
2023-05-01T05:15:32.125Z,5.388888888888914
2023-05-01T05:16:32.217Z,5.388888888888914
2023-05-01T05:17:31.523Z,5.388888888888914
2023-05-01T05:18:32.244Z,5.388888888888914
2023-05-01T05:19:32.134Z,5.388888888888914
2023-05-01T05:20:32.122Z,5.388888888888914
2023-05-01T05:21:31.495Z,5.388888888888914
2023-05-01T05:22:32.182Z,5.388888888888914
2023-05-01T05:23:32.121Z,5.388888888888914
2023-05-01T05:24:32.138Z,5.277777777777828
2023-05-01T05:25:31.472Z,5.277777777777828
2023-05-01T05:26:32.153Z,5.388888888888914
2023-05-01T05:27:32.113Z,5.388888888888914
2023-05-01T05:28:32.225Z,5.388888888888914
2023-05-01T05:29:31.478Z,5.500000000000057
2023-05-01T05:30:32.143Z,5.611111111111143
2023-05-01T05:31:32.132Z,5.722222222222285
2023-05-01T05:32:32.223Z,5.777777777777828
2023-05-01T05:33:31.447Z,6.000000000000057
2023-05-01T05:34:32.120Z,6.000000000000057
2023-05-01T05:35:32.119Z,6.222222222222285
2023-05-01T05:36:32.138Z,6.388888888888914
2023-05-01T05:37:31.930Z,6.388888888888914
2023-05-01T05:38:32.153Z,6.388888888888914
2023-05-01T05:39:32.114Z,6.277777777777828
2023-05-01T05:40:32.130Z,6.111111111111143
2023-05-01T05:41:31.456Z,6.111111111111143
2023-05-01T05:42:32.149Z,6.111111111111143
2023-05-01T05:43:32.137Z,6.111111111111143
2023-05-01T05:44:32.112Z,6.222222222222285
2023-05-01T05:45:31.417Z,6.222222222222285
2023-05-01T05:46:32.269Z,6.222222222222285
2023-05-01T05:47:32.183Z,6.222222222222285
2023-05-01T05:48:32.148Z,6.277777777777828
2023-05-01T05:49:31.446Z,6.277777777777828
2023-05-01T05:50:32.166Z,6.388888888888914
2023-05-01T05:51:32.122Z,6.722222222222285
2023-05-01T05:52:32.122Z,6.722222222222285
2023-05-01T05:53:31.452Z,6.611111111111143
2023-05-01T05:54:32.118Z,6.611111111111143
2023-05-01T05:55:32.121Z,6.722222222222285
2023-05-01T05:56:32.132Z,6.777777777777828
2023-05-01T05:57:31.731Z,6.888888888888914
2023-05-01T05:58:32.162Z,7.111111111111143
2023-05-01T05:59:32.122Z,7.222222222222285
2023-05-01T06:00:32.160Z,7.222222222222285
2023-05-01T06:01:31.446Z,7.222222222222285
2023-05-01T06:02:32.293Z,7.222222222222285
2023-05-01T06:03:32.210Z,7.222222222222285
2023-05-01T06:04:32.123Z,7.222222222222285
2023-05-01T06:05:31.467Z,7.277777777777828
2023-05-01T06:06:32.217Z,7.277777777777828
2023-05-01T06:07:32.298Z,7.222222222222285
2023-05-01T06:08:32.112Z,7.111111111111143
2023-05-01T06:09:31.426Z,7.111111111111143
2023-05-01T06:10:32.142Z,7.111111111111143
2023-05-01T06:11:32.123Z,7.111111111111143
2023-05-01T06:12:32.121Z,6.888888888888914
2023-05-01T06:13:31.444Z,6.722222222222285
2023-05-01T06:14:32.171Z,6.500000000000057
2023-05-01T06:15:32.165Z,6.388888888888914
2023-05-01T06:16:32.260Z,6.388888888888914
2023-05-01T06:17:32.162Z,6.388888888888914
2023-05-01T06:18:32.124Z,6.388888888888914
2023-05-01T06:19:32.121Z,6.388888888888914
2023-05-01T06:20:32.126Z,6.388888888888914
2023-05-01T06:21:32.105Z,6.500000000000057
2023-05-01T06:22:32.171Z,6.611111111111143
2023-05-01T06:23:32.197Z,6.611111111111143
2023-05-01T06:24:32.120Z,6.611111111111143
2023-05-01T06:25:31.458Z,6.722222222222285
2023-05-01T06:26:32.116Z,6.722222222222285
2023-05-01T06:27:32.276Z,6.888888888888914
2023-05-01T06:28:32.110Z,7.111111111111143
2023-05-01T06:29:31.414Z,7.388888888888914
2023-05-01T06:30:32.163Z,7.388888888888914
2023-05-01T06:31:32.265Z,7.500000000000057
2023-05-01T06:32:32.202Z,7.500000000000057
2023-05-01T06:33:31.414Z,7.500000000000057
2023-05-01T06:34:32.154Z,7.388888888888914
2023-05-01T06:35:32.139Z,7.388888888888914
2023-05-01T06:36:32.169Z,7.222222222222285
2023-05-01T06:37:32.270Z,7.222222222222285
2023-05-01T06:38:32.110Z,7.111111111111143
2023-05-01T06:39:32.160Z,7.000000000000057
2023-05-01T06:40:32.168Z,7.000000000000057
2023-05-01T06:41:31.405Z,7.000000000000057
2023-05-01T06:42:32.097Z,7.000000000000057
2023-05-01T06:43:32.131Z,7.111111111111143
2023-05-01T06:44:32.935Z,7.111111111111143
2023-05-01T06:45:32.122Z,7.111111111111143
2023-05-01T06:46:32.176Z,7.111111111111143
2023-05-01T06:47:32.480Z,7.111111111111143
2023-05-01T06:48:32.123Z,7.000000000000057
2023-05-01T06:49:32.095Z,7.000000000000057
2023-05-01T06:50:32.120Z,7.000000000000057
2023-05-01T06:51:32.170Z,7.000000000000057
2023-05-01T06:52:32.103Z,7.000000000000057
2023-05-01T06:53:32.128Z,7.000000000000057
2023-05-01T06:54:32.117Z,7.000000000000057
2023-05-01T06:55:33.772Z,6.888888888888914
2023-05-01T06:56:32.133Z,6.777777777777828
2023-05-01T06:57:32.237Z,6.777777777777828
2023-05-01T06:58:32.154Z,6.777777777777828
2023-05-01T06:59:32.127Z,6.777777777777828
2023-05-01T07:00:32.138Z,6.777777777777828
2023-05-01T07:01:34.688Z,6.888888888888914
2023-05-01T07:02:32.166Z,6.888888888888914
2023-05-01T07:03:32.348Z,6.888888888888914
2023-05-01T07:04:32.123Z,6.888888888888914
2023-05-01T07:05:32.165Z,6.888888888888914
2023-05-01T07:06:32.119Z,6.888888888888914
2023-05-01T07:07:32.170Z,6.888888888888914
2023-05-01T07:08:32.137Z,6.888888888888914
2023-05-01T07:09:32.173Z,6.888888888888914
2023-05-01T07:10:32.109Z,6.888888888888914
2023-05-01T07:11:32.179Z,6.888888888888914
2023-05-01T07:12:32.136Z,7.000000000000057
2023-05-01T07:13:32.088Z,7.111111111111143
2023-05-01T07:14:32.158Z,7.111111111111143
2023-05-01T07:15:32.134Z,7.222222222222285
2023-05-01T07:16:32.152Z,7.277777777777828
2023-05-01T07:17:32.118Z,7.388888888888914
2023-05-01T07:18:32.102Z,7.500000000000057
2023-05-01T07:19:32.167Z,7.500000000000057
2023-05-01T07:20:32.113Z,7.7222222222222285
2023-05-01T07:21:32.151Z,7.7222222222222285
2023-05-01T07:22:32.118Z,7.7222222222222285
2023-05-01T07:23:32.153Z,7.888888888888914
2023-05-01T07:24:32.139Z,8.111111111111143
2023-05-01T07:25:32.074Z,8.222222222222285
2023-05-01T07:26:32.109Z,8.222222222222285
2023-05-01T07:27:32.105Z,8.222222222222285
2023-05-01T07:28:32.107Z,8.111111111111143
2023-05-01T07:29:32.088Z,8.000000000000057
2023-05-01T07:30:32.130Z,8.000000000000057
2023-05-01T07:31:32.187Z,7.777777777777828
2023-05-01T07:32:32.181Z,7.7222222222222285
2023-05-01T07:33:32.099Z,7.7222222222222285
2023-05-01T07:34:32.119Z,7.777777777777828
2023-05-01T07:35:32.153Z,7.777777777777828
2023-05-01T07:36:32.140Z,7.777777777777828
2023-05-01T07:37:32.106Z,7.888888888888914
2023-05-01T07:38:32.174Z,7.888888888888914
2023-05-01T07:39:32.112Z,8.111111111111143
2023-05-01T07:40:32.103Z,8.222222222222285
2023-05-01T07:41:32.099Z,8.277777777777828
2023-05-01T07:42:32.123Z,8.388888888888971
2023-05-01T07:43:32.126Z,8.388888888888971
2023-05-01T07:44:32.121Z,8.722222222222285
2023-05-01T07:45:32.182Z,8.777777777777828
2023-05-01T07:46:32.181Z,8.722222222222285
2023-05-01T07:47:32.182Z,8.611111111111143
2023-05-01T07:48:32.153Z,8.222222222222285
2023-05-01T07:49:32.148Z,8.222222222222285
2023-05-01T07:50:32.083Z,8.222222222222285
2023-05-01T07:51:32.153Z,8.222222222222285
2023-05-01T07:52:32.121Z,8.222222222222285
2023-05-01T07:53:32.097Z,8.222222222222285
2023-05-01T07:54:32.108Z,8.222222222222285
2023-05-01T07:55:32.159Z,8.277777777777828
2023-05-01T07:56:32.167Z,8.277777777777828
2023-05-01T07:57:32.096Z,8.222222222222285
2023-05-01T07:58:32.139Z,8.111111111111143
2023-05-01T07:59:32.109Z,8.111111111111143
2023-05-01T08:00:32.193Z,8.000000000000057
2023-05-01T08:01:32.096Z,8.000000000000057
2023-05-01T08:02:32.189Z,8.000000000000057
2023-05-01T08:03:32.236Z,8.000000000000057
2023-05-01T08:04:32.132Z,8.000000000000057
2023-05-01T08:05:32.112Z,8.000000000000057
2023-05-01T08:06:32.249Z,8.111111111111143
2023-05-01T08:07:32.380Z,8.111111111111143
2023-05-01T08:08:32.124Z,8.000000000000057
2023-05-01T08:09:32.109Z,8.000000000000057
2023-05-01T08:10:32.133Z,8.000000000000057
2023-05-01T08:11:32.150Z,8.000000000000057
2023-05-01T08:12:32.130Z,8.000000000000057
2023-05-01T08:13:32.141Z,8.000000000000057
2023-05-01T08:14:32.100Z,8.111111111111143
2023-05-01T08:15:32.151Z,8.111111111111143
2023-05-01T08:16:32.228Z,8.111111111111143
2023-05-01T08:17:32.180Z,8.222222222222285
2023-05-01T08:18:32.117Z,8.222222222222285
2023-05-01T08:19:32.147Z,8.222222222222285
2023-05-01T08:20:32.139Z,8.277777777777828
2023-05-01T08:21:32.169Z,8.500000000000057
2023-05-01T08:22:32.180Z,8.500000000000057
2023-05-01T08:23:32.131Z,8.500000000000057
2023-05-01T08:24:32.120Z,8.388888888888971
2023-05-01T08:25:32.112Z,8.388888888888971
2023-05-01T08:26:32.085Z,8.388888888888971
2023-05-01T08:27:32.180Z,8.388888888888971
2023-05-01T08:28:32.145Z,8.222222222222285
2023-05-01T08:29:32.135Z,8.111111111111143
2023-05-01T08:30:32.108Z,8.000000000000057
2023-05-01T08:31:32.209Z,8.000000000000057
2023-05-01T08:32:32.190Z,8.111111111111143
2023-05-01T08:33:32.163Z,8.111111111111143
2023-05-01T08:34:32.110Z,8.222222222222285
2023-05-01T08:35:32.154Z,8.222222222222285
2023-05-01T08:36:32.088Z,8.222222222222285
2023-05-01T08:37:32.111Z,8.222222222222285
2023-05-01T08:38:32.107Z,8.222222222222285
2023-05-01T08:39:32.136Z,8.277777777777828
2023-05-01T08:40:32.100Z,8.277777777777828
2023-05-01T08:41:32.166Z,8.500000000000057
2023-05-01T08:42:32.450Z,8.611111111111143
2023-05-01T08:43:32.145Z,8.611111111111143
2023-05-01T08:44:32.093Z,8.611111111111143
2023-05-01T08:45:32.161Z,8.500000000000057
2023-05-01T08:46:32.183Z,8.500000000000057
2023-05-01T08:47:32.681Z,8.388888888888971
2023-05-01T08:48:32.101Z,8.388888888888971
2023-05-01T08:49:32.143Z,8.388888888888971
2023-05-01T08:50:32.099Z,8.388888888888971
2023-05-01T08:51:32.122Z,8.277777777777828
2023-05-01T08:52:32.113Z,8.222222222222285
2023-05-01T08:53:32.125Z,8.111111111111143
2023-05-01T08:54:32.088Z,8.111111111111143
2023-05-01T08:55:32.127Z,8.111111111111143
2023-05-01T08:56:32.119Z,8.111111111111143
2023-05-01T08:57:32.152Z,8.222222222222285
2023-05-01T08:58:32.109Z,8.277777777777828
2023-05-01T08:59:32.092Z,8.388888888888971
2023-05-01T09:00:32.102Z,8.500000000000057
2023-05-01T09:01:32.250Z,8.611111111111143
2023-05-01T09:02:32.128Z,8.611111111111143
2023-05-01T09:03:32.241Z,8.722222222222285
2023-05-01T09:04:32.084Z,8.777777777777828
2023-05-01T09:05:32.122Z,8.777777777777828
2023-05-01T09:06:32.169Z,8.722222222222285
2023-05-01T09:07:32.097Z,8.722222222222285
2023-05-01T09:08:32.102Z,8.722222222222285
2023-05-01T09:09:32.119Z,8.722222222222285
2023-05-01T09:10:33.016Z,8.722222222222285
2023-05-01T09:11:32.104Z,8.777777777777828
2023-05-01T09:12:32.078Z,8.777777777777828
2023-05-01T09:13:32.108Z,8.777777777777828
2023-05-01T09:14:32.117Z,8.777777777777828
2023-05-01T09:15:32.104Z,8.888888888888914